createdAt,value
2019-04-05T00:00:15.215Z,98806.14
2019-04-05T00:03:18.537Z,98811.87
2019-04-05T00:06:21.852Z,98815.80
2019-04-05T00:09:25.148Z,98807.74
2019-04-05T00:12:28.474Z,98808.86
2019-04-05T00:15:31.823Z,98816.95
2019-04-05T00:18:35.140Z,98818.06
2019-04-05T00:21:38.455Z,98805.75
2019-04-05T00:24:41.758Z,98805.98
2019-04-05T00:27:45.086Z,98804.66
2019-04-05T00:30:48.383Z,98796.19
2019-04-05T00:33:51.685Z,98802.73
2019-04-05T00:36:54.999Z,98815.12
2019-04-05T00:39:58.372Z,98812.65
2019-04-05T00:43:01.863Z,98836.26
2019-04-05T00:46:05.176Z,98840.85
2019-04-05T00:49:08.492Z,98850.52
2019-04-05T00:52:11.788Z,98857.45
2019-04-05T00:55:15.118Z,98864.72
2019-04-05T00:58:18.459Z,98876.10
2019-04-05T01:01:21.744Z,98881.79
2019-04-05T01:04:25.080Z,98878.51
2019-04-05T01:07:28.391Z,98875.71
2019-04-05T01:10:31.734Z,98874.69
2019-04-05T01:13:35.042Z,98876.45
2019-04-05T01:16:38.326Z,98877.28
2019-04-05T01:19:41.632Z,98885.95
2019-04-05T01:22:45.023Z,98878.13
2019-04-05T01:25:48.323Z,98884.47
2019-04-05T01:28:51.647Z,98894.70
2019-04-05T01:31:54.967Z,98888.39
2019-04-05T01:34:58.285Z,98891.08
2019-04-05T01:38:02.150Z,98897.42
2019-04-05T01:41:05.449Z,98899.11
2019-04-05T01:44:08.771Z,98897.46
2019-04-05T01:47:12.088Z,98900.13
2019-04-05T01:50:15.407Z,98904.39
2019-04-05T01:53:18.811Z,98895.02
2019-04-05T01:56:22.098Z,98899.56
2019-04-05T01:59:25.433Z,98904.05
2019-04-05T02:02:28.722Z,98912.35
2019-04-05T02:05:32.043Z,98909.63
2019-04-05T02:08:35.371Z,98898.35
2019-04-05T02:11:38.703Z,98899.94
2019-04-05T02:14:42.033Z,98901.23
2019-04-05T02:17:45.315Z,98900.09
2019-04-05T02:20:48.616Z,98900.55
2019-04-05T02:23:52.012Z,98907.96
2019-04-05T02:26:55.330Z,98913.56
2019-04-05T02:29:58.672Z,98917.02
2019-04-05T02:33:02.042Z,98912.85
2019-04-05T02:36:05.360Z,98919.20
2019-04-05T02:39:08.705Z,98926.12
2019-04-05T02:42:11.997Z,98930.23
2019-04-05T02:45:15.575Z,98929.10
2019-04-05T02:48:18.873Z,98935.72
2019-04-05T02:51:23.163Z,98935.23
2019-04-05T02:54:26.486Z,98932.37
2019-04-05T02:57:30.059Z,98933.80
2019-04-05T03:00:33.391Z,98928.66
2019-04-05T03:03:36.682Z,98921.17
2019-04-05T03:06:40.058Z,98921.08
2019-04-05T03:09:43.462Z,98927.22
2019-04-05T03:12:46.747Z,98932.56
2019-04-05T03:15:50.342Z,98931.98
2019-04-05T03:19:05.470Z,98928.27
2019-04-05T03:22:10.351Z,98929.48
2019-04-05T03:25:13.670Z,98924.88
2019-04-05T03:28:16.970Z,98921.19
2019-04-05T03:31:24.482Z,98922.83
2019-04-05T03:34:25.358Z,98923.73
2019-04-05T03:37:28.688Z,98921.92
2019-04-05T03:40:32.012Z,98927.83
2019-04-05T03:43:35.402Z,98940.36
2019-04-05T03:46:54.880Z,98954.78
2019-04-05T03:49:43.730Z,98958.48
2019-04-05T03:52:47.058Z,98966.53
2019-04-05T03:55:50.373Z,98966.02
2019-04-05T03:58:53.687Z,98967.86
2019-04-05T04:01:56.996Z,98970.78
2019-04-05T04:05:00.328Z,98991.58
2019-04-05T04:08:03.683Z,98999.48
2019-04-05T04:11:07.857Z,98994.87
2019-04-05T04:14:11.168Z,98995.25
2019-04-05T04:17:14.499Z,99002.97
2019-04-05T04:20:30.132Z,99007.38
2019-04-05T04:23:33.466Z,99018.91
2019-04-05T04:26:36.847Z,99028.52
2019-04-05T04:29:40.609Z,99036.08
2019-04-05T04:32:43.920Z,99038.25
2019-04-05T04:35:47.235Z,99042.96
2019-04-05T04:38:50.562Z,99050.45
2019-04-05T04:41:53.877Z,99044.30
2019-04-05T04:45:11.007Z,99056.70
2019-04-05T04:48:02.261Z,99062.77
2019-04-05T04:51:05.561Z,99061.77
2019-04-05T04:54:08.936Z,99064.10
2019-04-05T04:57:12.402Z,99061.31
2019-04-05T05:00:15.972Z,99067.23
2019-04-05T05:03:19.312Z,99053.45
2019-04-05T05:06:22.617Z,99059.60
2019-04-05T05:09:26.161Z,99065.28
2019-04-05T05:12:29.502Z,99075.62
2019-04-05T05:15:32.797Z,99079.06
2019-04-05T05:18:36.127Z,99071.66
2019-04-05T05:21:39.506Z,99059.12
2019-04-05T05:24:42.819Z,99075.61
2019-04-05T05:27:46.134Z,99076.27
2019-04-05T05:30:49.596Z,99076.27
2019-04-05T05:33:52.917Z,99078.56
2019-04-05T05:36:56.213Z,99072.06
2019-04-05T05:39:59.529Z,99081.48
2019-04-05T05:43:02.849Z,99084.13
2019-04-05T05:46:06.163Z,99080.84
2019-04-05T05:49:09.467Z,99081.66
2019-04-05T05:52:12.825Z,99075.02
2019-04-05T05:55:16.109Z,99082.27
2019-04-05T05:58:19.442Z,99080.75
2019-04-05T06:01:22.731Z,99075.34
2019-04-05T06:04:26.049Z,99083.40
2019-04-05T06:07:29.475Z,99088.81
2019-04-05T06:10:32.736Z,99088.33
2019-04-05T06:13:36.068Z,99093.63
2019-04-05T06:16:46.454Z,99095.98
2019-04-05T06:19:44.402Z,99100.11
2019-04-05T06:22:47.852Z,99102.61
2019-04-05T06:25:51.117Z,99105.06
2019-04-05T06:28:54.574Z,99106.33
2019-04-05T06:31:58.047Z,99106.55
2019-04-05T06:35:01.389Z,99112.33
2019-04-05T06:38:04.674Z,99107.20
2019-04-05T06:41:08.017Z,99110.83
2019-04-05T06:44:11.348Z,99116.54
2019-04-05T06:47:14.644Z,99103.81
2019-04-05T06:50:17.966Z,99104.23
2019-04-05T06:53:21.270Z,99100.12
2019-04-05T06:56:24.656Z,99099.72
2019-04-05T06:59:27.981Z,99103.03
2019-04-05T07:02:31.286Z,99106.53
2019-04-05T07:05:34.634Z,99109.46
2019-04-05T07:08:38.017Z,99122.62
2019-04-05T07:11:41.328Z,99124.22
2019-04-05T07:14:44.748Z,99115.50
2019-04-05T07:17:48.126Z,99119.69
2019-04-05T07:20:51.503Z,99126.92
2019-04-05T07:23:54.814Z,99122.09
2019-04-05T07:26:58.143Z,99133.19
2019-04-05T07:30:01.569Z,99143.21
2019-04-05T07:33:04.923Z,99156.96
2019-04-05T07:36:10.067Z,99152.63
2019-04-05T07:39:13.355Z,99155.16
2019-04-05T07:42:16.699Z,99156.58
2019-04-05T07:45:20.010Z,99161.64
2019-04-05T07:48:23.318Z,99158.86
2019-04-05T07:51:26.640Z,99163.88
2019-04-05T07:54:29.966Z,99169.52
2019-04-05T07:57:33.311Z,99177.08
2019-04-05T08:00:48.693Z,99181.19
2019-04-05T08:03:52.010Z,99182.31
2019-04-05T08:06:57.476Z,99181.42
2019-04-05T08:10:02.989Z,99193.80
2019-04-05T08:13:06.314Z,99191.78
2019-04-05T08:16:09.633Z,99196.58
2019-04-05T08:19:12.959Z,99196.96
2019-04-05T08:22:16.272Z,99195.58
2019-04-05T08:25:19.603Z,99185.63
2019-04-05T08:28:22.908Z,99181.69
2019-04-05T08:31:26.235Z,99187.95
2019-04-05T08:34:29.610Z,99180.86
2019-04-05T08:37:32.930Z,99185.69
2019-04-05T08:40:36.354Z,99193.91
2019-04-05T08:43:39.818Z,99197.34
2019-04-05T08:46:43.174Z,99195.20
2019-04-05T08:49:46.479Z,99192.81
2019-04-05T08:52:49.873Z,99197.65
2019-04-05T08:55:53.197Z,99197.77
2019-04-05T08:58:56.514Z,99194.06
2019-04-05T09:01:59.860Z,99192.89
2019-04-05T09:05:04.068Z,99193.52
2019-04-05T09:08:07.488Z,99198.56
2019-04-05T09:11:10.804Z,99197.91
2019-04-05T09:14:14.182Z,99200.75
2019-04-05T09:17:17.519Z,99201.95
2019-04-05T09:20:20.846Z,99204.30
2019-04-05T09:23:24.198Z,99201.77
2019-04-05T09:26:27.549Z,99207.89
2019-04-05T09:29:30.860Z,99209.20
2019-04-05T09:32:36.478Z,99199.58
2019-04-05T09:35:39.300Z,99208.84
2019-04-05T09:38:42.799Z,99216.86
2019-04-05T09:41:46.182Z,99221.65
2019-04-05T09:44:49.554Z,99219.50
2019-04-05T09:47:52.870Z,99221.75
2019-04-05T09:50:56.192Z,99214.29
2019-04-05T09:53:59.562Z,99213.65
2019-04-05T09:57:02.895Z,99208.91
2019-04-05T10:00:10.639Z,99213.66
2019-04-05T10:03:14.075Z,99218.67
2019-04-05T10:06:17.415Z,99224.51
2019-04-05T10:09:20.846Z,99221.61
2019-04-05T10:12:24.223Z,99214.41
2019-04-05T10:15:27.541Z,99208.75
2019-04-05T10:18:30.869Z,99209.64
2019-04-05T10:21:34.183Z,99214.64
2019-04-05T10:24:38.357Z,99220.39
2019-04-05T10:27:41.699Z,99228.13
2019-04-05T10:30:45.053Z,99233.47
2019-04-05T10:33:48.393Z,99224.88
2019-04-05T10:36:51.848Z,99223.45
2019-04-05T10:39:55.203Z,99225.31
2019-04-05T10:42:58.596Z,99234.95
2019-04-05T10:46:01.916Z,99234.53
2019-04-05T10:49:05.737Z,99236.79
2019-04-05T10:52:09.050Z,99232.84
2019-04-05T10:55:12.401Z,99242.67
2019-04-05T10:58:15.760Z,99242.67
2019-04-05T11:01:19.071Z,99242.36
2019-04-05T11:04:22.426Z,99250.16
2019-04-05T11:07:25.762Z,99251.31
2019-04-05T11:10:29.070Z,99253.95
2019-04-05T11:13:32.431Z,99248.20
2019-04-05T11:16:35.814Z,99254.57
2019-04-05T11:19:39.261Z,99247.76
2019-04-05T11:22:42.640Z,99244.84
2019-04-05T11:25:45.969Z,99245.30
2019-04-05T11:28:49.315Z,99245.13
2019-04-05T11:31:57.272Z,99239.23
2019-04-05T11:34:57.744Z,99236.47
2019-04-05T11:38:01.164Z,99238.72
2019-04-05T11:41:04.647Z,99229.51
2019-04-05T11:44:08.109Z,99238.61
2019-04-05T11:47:11.544Z,99231.42
2019-04-05T11:50:15.050Z,99232.53
2019-04-05T11:53:21.772Z,99225.59
2019-04-05T11:56:23.651Z,99230.92
2019-04-05T11:59:27.177Z,99226.22
2019-04-05T12:02:41.389Z,99225.52
2019-04-05T12:05:44.802Z,99230.61
2019-04-05T12:08:48.333Z,99234.22
2019-04-05T12:11:51.807Z,99236.95
2019-04-05T12:15:06.967Z,99233.94
2019-04-05T12:18:10.467Z,99232.48
2019-04-05T12:21:13.879Z,99240.23
2019-04-05T12:24:17.328Z,99231.95
2019-04-05T12:27:20.959Z,99232.72
2019-04-05T12:30:25.767Z,99237.42
2019-04-05T12:33:29.268Z,99226.45
2019-04-05T12:36:32.657Z,99220.73
2019-04-05T12:39:37.092Z,99214.54
2019-04-05T12:42:43.581Z,99202.34
2019-04-05T12:45:45.838Z,99213.16
2019-04-05T12:48:49.233Z,99199.78
2019-04-05T12:51:52.670Z,99201.69
2019-04-05T12:54:56.101Z,99200.05
2019-04-05T12:57:59.634Z,99199.06
2019-04-05T13:01:03.062Z,99200.30
2019-04-05T13:04:06.483Z,99193.41
2019-04-05T13:07:09.882Z,99194.27
2019-04-05T13:10:13.287Z,99181.97
2019-04-05T13:13:16.695Z,99186.55
2019-04-05T13:16:20.122Z,99186.70
2019-04-05T13:19:23.586Z,99182.33
2019-04-05T13:22:26.995Z,99191.42
2019-04-05T13:25:30.384Z,99185.45
2019-04-05T13:28:33.832Z,99193.10
2019-04-05T13:31:37.339Z,99190.52
2019-04-05T13:34:40.736Z,99181.30
2019-04-05T13:37:44.141Z,99188.03
2019-04-05T13:40:47.557Z,99185.59
2019-04-05T13:43:50.989Z,99182.52
2019-04-05T13:46:54.412Z,99181.34
2019-04-05T13:49:57.803Z,99179.88
2019-04-05T13:53:01.224Z,99189.69
2019-04-05T13:56:04.525Z,99193.37
2019-04-05T13:59:07.896Z,99183.90
2019-04-05T14:02:11.337Z,99186.95
2019-04-05T14:05:14.750Z,99183.44
2019-04-05T14:08:18.097Z,99177.25
2019-04-05T14:11:21.454Z,99178.29
2019-04-05T14:14:24.767Z,99180.41
2019-04-05T14:17:28.134Z,99181.06
2019-04-05T14:20:31.450Z,99173.86
2019-04-05T14:23:34.842Z,99168.98
2019-04-05T14:26:38.161Z,99173.27
2019-04-05T14:29:41.481Z,99165.63
2019-04-05T14:32:44.808Z,99166.02
2019-04-05T14:35:48.168Z,99173.95
2019-04-05T14:38:51.493Z,99167.34
2019-04-05T14:41:54.790Z,99165.52
2019-04-05T14:44:58.145Z,99173.70
2019-04-05T14:48:01.472Z,99168.91
2019-04-05T14:51:04.804Z,99159.07
2019-04-05T14:54:09.976Z,99173.27
2019-04-05T14:57:13.285Z,99165.04
2019-04-05T15:00:16.987Z,99167.09
2019-04-05T15:03:20.354Z,99174.93
2019-04-05T15:06:26.439Z,99165.97
2019-04-05T15:09:28.720Z,99166.48
2019-04-05T15:12:35.117Z,99169.70
2019-04-05T15:15:38.434Z,99171.59
2019-04-05T15:18:41.778Z,99172.14
2019-04-05T15:21:45.123Z,99169.20
2019-04-05T15:24:48.422Z,99161.11
2019-04-05T15:27:55.412Z,99161.24
2019-04-05T15:30:56.839Z,99163.84
2019-04-05T15:34:00.179Z,99174.00
2019-04-05T15:37:03.762Z,99167.86
2019-04-05T15:40:07.258Z,99164.84
2019-04-05T15:43:10.559Z,99157.52
2019-04-05T15:46:13.909Z,99158.00
2019-04-05T15:49:17.279Z,99162.26
2019-04-05T15:52:20.584Z,99165.78
2019-04-05T15:55:23.927Z,99168.02
2019-04-05T15:58:27.247Z,99163.75
2019-04-05T16:01:32.120Z,99156.38
2019-04-05T16:04:35.628Z,99166.73
2019-04-05T16:07:38.982Z,99161.53
2019-04-05T16:10:42.304Z,99157.13
2019-04-05T16:13:45.601Z,99156.06
2019-04-05T16:16:48.999Z,99147.72
2019-04-05T16:19:52.389Z,99154.23
2019-04-05T16:22:55.720Z,99150.13
2019-04-05T16:25:59.056Z,99147.06
2019-04-05T16:29:02.366Z,99145.40
2019-04-05T16:32:05.711Z,99154.81
2019-04-05T16:35:09.048Z,99145.34
2019-04-05T16:38:12.425Z,99144.03
2019-04-05T16:41:15.779Z,99145.24
2019-04-05T16:44:19.101Z,99149.15
2019-04-05T16:47:22.398Z,99148.63
2019-04-05T16:50:25.749Z,99147.94
2019-04-05T16:53:29.076Z,99153.91
2019-04-05T16:56:32.412Z,99151.88
2019-04-05T16:59:35.723Z,99158.16
2019-04-05T17:02:39.052Z,99156.62
2019-04-05T17:05:42.405Z,99156.38
2019-04-05T17:08:45.738Z,99154.92
2019-04-05T17:11:49.055Z,99163.00
2019-04-05T17:14:52.372Z,99160.17
2019-04-05T17:17:55.727Z,99144.50
2019-04-05T17:20:59.059Z,99148.99
2019-04-05T17:24:02.436Z,99150.50
2019-04-05T17:27:05.781Z,99153.55
2019-04-05T17:30:09.093Z,99153.66
2019-04-05T17:33:12.930Z,99149.53
2019-04-05T17:36:16.736Z,99156.27
2019-04-05T17:39:20.182Z,99159.27
2019-04-05T17:42:23.575Z,99161.73
2019-04-05T17:45:26.896Z,99158.89
2019-04-05T17:48:30.275Z,99161.22
2019-04-05T17:51:33.691Z,99161.89
2019-04-05T17:54:37.117Z,99170.52
2019-04-05T17:57:40.435Z,99173.10
2019-04-05T18:00:44.852Z,99180.36
2019-04-05T18:03:48.185Z,99187.30
2019-04-05T18:06:51.487Z,99195.61
2019-04-05T18:09:54.915Z,99191.14
2019-04-05T18:12:58.195Z,99199.83
2019-04-05T18:16:01.595Z,99205.09
2019-04-05T18:19:05.077Z,99203.29
2019-04-05T18:22:08.412Z,99196.27
2019-04-05T18:25:14.089Z,99207.06
2019-04-05T18:28:16.827Z,99205.92
2019-04-05T18:31:20.367Z,99205.67
2019-04-05T18:34:23.880Z,99204.91
2019-04-05T18:37:27.225Z,99203.95
2019-04-05T18:40:39.970Z,99200.80
2019-04-05T18:43:35.810Z,99204.48
2019-04-05T18:46:39.222Z,99198.28
2019-04-05T18:49:42.560Z,99203.14
2019-04-05T18:52:47.558Z,99204.82
2019-04-05T18:55:51.004Z,99205.28
2019-04-05T18:58:54.323Z,99206.06
2019-04-05T19:01:57.862Z,99207.30
2019-04-05T19:05:02.535Z,99201.53
2019-04-05T19:08:06.130Z,99197.91
2019-04-05T19:11:09.433Z,99190.05
2019-04-05T19:14:12.827Z,99197.81
2019-04-05T19:17:23.880Z,99195.73
2019-04-05T19:20:21.268Z,99197.17
2019-04-05T19:23:24.585Z,99196.58
2019-04-05T19:26:27.925Z,99194.63
2019-04-05T19:29:31.264Z,99199.25
2019-04-05T19:51:05.241Z,99211.50
2019-04-05T19:54:08.555Z,99211.15
2019-04-05T19:57:11.956Z,99214.19
2019-04-05T20:00:15.349Z,99215.98
2019-04-05T20:03:18.716Z,99216.15
2019-04-05T20:06:22.173Z,99215.38
2019-04-05T20:09:25.573Z,99220.06
2019-04-05T20:12:28.927Z,99220.70
2019-04-05T20:15:35.092Z,99222.27
2019-04-05T20:18:38.438Z,99219.33
2019-04-05T20:21:41.908Z,99217.05
2019-04-05T20:24:45.370Z,99219.50
2019-04-05T20:27:52.641Z,99225.70
2019-04-05T20:30:56.078Z,99218.03
2019-04-05T20:33:59.732Z,99214.00
2019-04-05T20:37:03.058Z,99212.79
2019-04-05T20:40:07.243Z,99214.42
2019-04-05T20:43:10.563Z,99213.56
2019-04-05T20:46:13.918Z,99222.95
2019-04-05T20:49:18.715Z,99221.09
2019-04-05T20:52:23.391Z,99222.10
2019-04-05T20:55:26.953Z,99216.23
2019-04-05T20:58:30.526Z,99226.47
2019-04-05T21:01:34.021Z,99224.00
2019-04-05T21:04:37.326Z,99222.89
2019-04-05T21:07:40.802Z,99227.68
2019-04-05T21:10:44.442Z,99230.32
2019-04-05T21:13:48.358Z,99227.64
2019-04-05T21:16:52.162Z,99226.45
2019-04-05T21:19:55.548Z,99227.80
2019-04-05T21:22:59.019Z,99232.52
2019-04-05T21:26:02.405Z,99233.15
2019-04-05T21:29:05.754Z,99237.55
2019-04-05T21:32:09.275Z,99238.25
2019-04-05T21:35:13.406Z,99238.37
2019-04-05T21:38:17.986Z,99237.97
2019-04-05T21:41:21.709Z,99235.34
2019-04-05T21:44:25.207Z,99239.83
2019-04-05T21:47:29.102Z,99240.15
2019-04-05T21:50:32.705Z,99242.39
2019-04-05T21:53:36.105Z,99248.88
2019-04-05T21:56:39.699Z,99248.88
2019-04-05T21:59:43.199Z,99252.87
2019-04-05T22:02:46.480Z,99253.37
2019-04-05T22:05:50.107Z,99257.23
2019-04-05T22:08:53.607Z,99257.77
2019-04-05T22:11:57.186Z,99268.30
2019-04-05T22:15:00.550Z,99269.87
2019-04-05T22:18:04.009Z,99258.61
2019-04-05T22:21:07.434Z,99257.58
2019-04-05T22:24:10.732Z,99255.28
2019-04-05T22:27:14.196Z,99258.09
2019-04-05T22:30:17.528Z,99263.36
2019-04-05T22:33:20.898Z,99263.84
2019-04-05T22:36:24.397Z,99263.19
2019-04-05T22:39:27.753Z,99263.92
2019-04-05T22:42:31.366Z,99260.36
2019-04-05T22:45:34.722Z,99273.17
2019-04-05T22:48:38.126Z,99272.64
2019-04-05T22:51:41.654Z,99275.22
2019-04-05T22:54:45.142Z,99273.03
2019-04-05T22:57:48.575Z,99272.48
2019-04-05T23:00:52.027Z,99272.36
2019-04-05T23:03:55.482Z,99280.14
2019-04-05T23:06:58.856Z,99277.94
2019-04-05T23:10:02.154Z,99279.73
2019-04-05T23:13:05.484Z,99279.41
2019-04-05T23:16:08.836Z,99283.48
2019-04-05T23:19:12.132Z,99282.87
2019-04-05T23:22:15.434Z,99275.22
2019-04-05T23:25:22.197Z,99279.29
2019-04-05T23:28:23.810Z,99280.97
2019-04-05T23:31:27.130Z,99277.42
2019-04-05T23:34:30.445Z,99282.39
2019-04-05T23:37:33.756Z,99285.31
2019-04-05T23:40:37.065Z,99288.67
2019-04-05T23:43:40.454Z,99297.09
2019-04-05T23:46:43.766Z,99305.22
2019-04-05T23:49:47.090Z,99308.72
2019-04-05T23:52:50.407Z,99312.71
2019-04-05T23:55:53.763Z,99309.45
2019-04-05T23:58:57.095Z,99309.78
